Terminal Aerodrome Forecast
Issued by NWS

Home | Current Version | Previous Version | Graphics & Text | Print | Product List | Glossary On
Versions: 1 2 3 4 5 6 7 8 9 10 11 12 13 14 15 16 17 18 19 20 21
391
FTUS43 KUNR 231728
TAFGCC
TAF
KGCC 231728Z 2318/2418 22018G25KT P6SM BKN200
     FM241100 33025G37KT P6SM BKN040=

USA.gov is the U.S. government's official web portal to all federal, state and local government web resources and services.